Time;durP1;ratioP1;P1;durP2;ratioP2;P2;SDS_P1;SDS_P2;PMS_P1;PMS_P2;Temp;Humidity;BMP_temperature;BMP_pressure;BME280_temperature;BME280_humidity;BME280_pressure;Samples;Min_cycle;Max_cycle;Signal;HPM_P1;HPM_P2
2024/03/20 00:02:07;;;;;;;;;;;22.70;39.40;;;;;;5079215;28;19940;-42
2024/03/20 00:04:33;;;;;;;;;;;22.70;39.20;;;;;;5077281;28;19913;-41
2024/03/20 00:06:59;;;;;;;;;;;22.70;39.50;;;;;;5080699;28;19924;-42
2024/03/20 00:09:25;;;;;;;;;;;22.70;39.90;;;;;;5077474;28;19974;-41
2024/03/20 00:11:52;;;;;;;;;;;22.70;39.80;;;;;;5078052;28;19916;-42
2024/03/20 00:14:18;;;;;;;;;;;22.70;39.70;;;;;;5075536;28;19912;-41
2024/03/20 00:16:44;;;;;;;;;;;22.70;39.70;;;;;;5077322;28;19919;-41
2024/03/20 00:19:10;;;;;;;;;;;22.70;39.70;;;;;;5073453;28;19912;-41
2024/03/20 00:21:36;;;;;;;;;;;22.60;39.60;;;;;;5073702;28;20035;-44
2024/03/20 00:24:02;;;;;;;;;;;22.70;39.80;;;;;;5072037;28;19912;-43
2024/03/20 00:26:28;;;;;;;;;;;22.70;40.10;;;;;;5066065;28;19913;-42
2024/03/20 00:28:54;;;;;;;;;;;22.70;40.10;;;;;;5073259;28;19912;-46
2024/03/20 00:31:19;;;;;;;;;;;22.60;40.00;;;;;;5073169;28;19927;-40
2024/03/20 00:33:45;;;;;;;;;;;22.60;40.00;;;;;;5074328;28;19908;-40
2024/03/20 00:36:11;;;;;;;;;;;22.60;40.00;;;;;;5082940;28;19935;-45
2024/03/20 00:38:37;;;;;;;;;;;22.60;39.90;;;;;;5071869;28;20300;-44
2024/03/20 00:41:06;;;;;;;;;;;22.60;40.10;;;;;;5078837;28;19962;-42
2024/03/20 00:43:31;;;;;;;;;;;22.60;40.30;;;;;;5077521;28;19985;-47
2024/03/20 00:45:57;;;;;;;;;;;22.60;40.30;;;;;;5070521;28;20565;-42
2024/03/20 00:48:23;;;;;;;;;;;22.60;40.30;;;;;;5073523;28;20559;-44
2024/03/20 00:50:49;;;;;;;;;;;22.60;40.30;;;;;;5066503;28;19986;-47
2024/03/20 00:53:15;;;;;;;;;;;22.50;40.20;;;;;;5074572;28;19939;-42
2024/03/20 00:55:44;;;;;;;;;;;22.50;40.20;;;;;;5078797;28;19912;-42
2024/03/20 00:58:11;;;;;;;;;;;22.50;40.10;;;;;;5086015;28;20365;-41
2024/03/20 01:00:40;;;;;;;;;;;22.50;40.50;;;;;;5075437;28;19912;-43
2024/03/20 01:03:08;;;;;;;;;;;22.60;40.60;;;;;;5076326;28;19909;-42
2024/03/20 01:05:34;;;;;;;;;;;22.60;40.60;;;;;;5075097;28;19935;-42
2024/03/20 01:08:02;;;;;;;;;;;22.50;40.50;;;;;;5075753;28;19908;-46
2024/03/20 01:10:29;;;;;;;;;;;22.50;40.40;;;;;;5081000;28;19971;-44
2024/03/20 01:12:55;;;;;;;;;;;22.40;40.30;;;;;;5082399;28;19915;-41
2024/03/20 01:15:28;;;;;;;;;;;22.40;40.30;;;;;;5080526;28;20525;-40
2024/03/20 01:17:55;;;;;;;;;;;22.50;40.70;;;;;;5070237;28;19913;-44
2024/03/20 01:20:21;;;;;;;;;;;22.50;40.70;;;;;;5074813;28;19944;-44
2024/03/20 01:22:51;;;;;;;;;;;22.50;40.80;;;;;;5076928;28;19934;-42
2024/03/20 01:25:18;;;;;;;;;;;22.50;40.70;;;;;;5076135;28;19913;-41
2024/03/20 01:27:50;;;;;;;;;;;22.40;40.60;;;;;;5075244;28;19912;-41
2024/03/20 01:30:19;;;;;;;;;;;22.40;40.60;;;;;;5074512;28;20269;-40
2024/03/20 01:32:45;;;;;;;;;;;22.40;40.70;;;;;;5070865;28;19909;-43
2024/03/20 01:35:14;;;;;;;;;;;22.40;41.00;;;;;;5070837;28;19940;-41
2024/03/20 01:37:41;;;;;;;;;;;22.50;41.00;;;;;;5078087;28;19912;-42
2024/03/20 01:40:07;;;;;;;;;;;22.40;40.90;;;;;;5077749;28;19947;-41
2024/03/20 01:42:35;;;;;;;;;;;22.40;40.90;;;;;;5080963;28;19988;-46
2024/03/20 01:45:12;;;;;;;;;;;22.40;40.80;;;;;;5080991;28;19920;-42
2024/03/20 01:47:44;;;;;;;;;;;22.30;40.90;;;;;;5078809;28;19912;-41
2024/03/20 01:50:13;;;;;;;;;;;22.40;41.10;;;;;;5077186;28;19912;-40
2024/03/20 01:52:50;;;;;;;;;;;22.40;41.10;;;;;;5071386;28;19978;-41
2024/03/20 01:55:17;;;;;;;;;;;22.40;41.10;;;;;;5075852;28;19912;-40
2024/03/20 01:57:44;;;;;;;;;;;22.40;41.00;;;;;;5069382;28;19919;-40
2024/03/20 02:00:13;;;;;;;;;;;22.30;40.90;;;;;;5077646;28;19908;-45
2024/03/20 02:02:43;;;;;;;;;;;22.30;41.00;;;;;;5079610;28;20547;-41
2024/03/20 02:05:30;;;;;;;;;;;22.30;41.20;;;;;;5077383;28;19917;-42
2024/03/20 02:07:56;;;;;;;;;;;22.40;41.30;;;;;;5074534;28;19916;-41
2024/03/20 02:10:23;;;;;;;;;;;22.40;41.30;;;;;;5079657;28;20657;-40
2024/03/20 02:13:10;;;;;;;;;;;22.30;41.10;;;;;;5080215;28;19917;-43
2024/03/20 02:15:39;;;;;;;;;;;22.30;41.10;;;;;;5079924;28;19992;-40
2024/03/20 02:18:07;;;;;;;;;;;22.20;41.00;;;;;;5079677;28;19909;-40
2024/03/20 02:20:34;;;;;;;;;;;22.30;41.30;;;;;;5079893;28;19908;-40
2024/03/20 02:23:00;;;;;;;;;;;22.30;41.60;;;;;;5079076;28;19908;-43
2024/03/20 02:25:36;;;;;;;;;;;22.30;41.50;;;;;;5078992;28;20037;-42
2024/03/20 02:28:02;;;;;;;;;;;22.30;41.40;;;;;;5079903;28;19918;-43
2024/03/20 02:30:29;;;;;;;;;;;22.30;41.40;;;;;;5079584;28;19916;-41
2024/03/20 02:32:55;;;;;;;;;;;22.20;41.20;;;;;;5080095;28;19908;-45
2024/03/20 02:35:22;;;;;;;;;;;22.20;41.30;;;;;;5079692;28;20815;-41
2024/03/20 02:37:53;;;;;;;;;;;22.20;41.50;;;;;;5079115;28;19935;-43
2024/03/20 02:40:20;;;;;;;;;;;22.30;41.60;;;;;;5079086;28;19916;-43
2024/03/20 02:42:46;;;;;;;;;;;22.30;41.60;;;;;;5079781;28;19979;-42
2024/03/20 02:45:15;;;;;;;;;;;22.30;41.50;;;;;;5077338;28;19920;-42
2024/03/20 02:47:44;;;;;;;;;;;22.20;41.40;;;;;;5074243;28;19943;-42
2024/03/20 02:50:12;;;;;;;;;;;22.20;41.30;;;;;;5082809;28;20270;-41
2024/03/20 02:52:38;;;;;;;;;;;22.20;41.50;;;;;;5073045;28;19951;-41
2024/03/20 02:55:05;;;;;;;;;;;22.20;41.70;;;;;;5071924;28;19913;-41
2024/03/20 02:57:31;;;;;;;;;;;22.30;41.80;;;;;;5080399;28;19912;-40
2024/03/20 02:59:58;;;;;;;;;;;22.20;41.60;;;;;;5081062;28;19908;-44
2024/03/20 03:02:24;;;;;;;;;;;22.20;41.50;;;;;;5082478;28;20027;-41
2024/03/20 03:04:52;;;;;;;;;;;22.20;41.50;;;;;;5085348;28;19912;-43
2024/03/20 03:07:20;;;;;;;;;;;22.10;41.60;;;;;;5084372;28;19927;-43
2024/03/20 03:09:46;;;;;;;;;;;22.20;41.80;;;;;;5071606;28;19920;-43
2024/03/20 03:12:13;;;;;;;;;;;22.20;41.90;;;;;;5076345;28;19923;-43
2024/03/20 03:14:39;;;;;;;;;;;22.20;41.80;;;;;;5084426;28;19912;-43
2024/03/20 03:17:07;;;;;;;;;;;22.20;41.70;;;;;;5085009;28;19979;-44
2024/03/20 03:19:33;;;;;;;;;;;22.10;41.70;;;;;;5083856;28;19952;-44
2024/03/20 03:22:00;;;;;;;;;;;22.10;41.70;;;;;;5078917;28;19935;-45
2024/03/20 03:24:26;;;;;;;;;;;22.10;41.80;;;;;;5081081;28;19912;-41
2024/03/20 03:26:52;;;;;;;;;;;22.10;41.90;;;;;;5084380;28;19909;-41
2024/03/20 03:29:20;;;;;;;;;;;22.20;42.00;;;;;;5083938;28;19915;-42
2024/03/20 03:31:47;;;;;;;;;;;22.20;41.90;;;;;;5082736;28;19920;-43
2024/03/20 03:34:14;;;;;;;;;;;22.10;41.80;;;;;;5081267;28;19999;-41
2024/03/20 03:36:40;;;;;;;;;;;22.10;41.70;;;;;;5077423;28;19966;-45
2024/03/20 03:39:06;;;;;;;;;;;22.10;41.80;;;;;;5070977;28;19908;-41
2024/03/20 03:41:33;;;;;;;;;;;22.10;42.00;;;;;;5066973;28;19974;-44
2024/03/20 03:43:59;;;;;;;;;;;22.20;42.10;;;;;;5066526;28;19924;-42
2024/03/20 03:46:26;;;;;;;;;;;22.10;42.00;;;;;;5073361;28;19919;-44
2024/03/20 03:48:52;;;;;;;;;;;22.10;41.90;;;;;;5079277;28;19915;-41
2024/03/20 03:51:18;;;;;;;;;;;22.10;42.00;;;;;;5076659;28;20356;-42
2024/03/20 03:53:45;;;;;;;;;;;22.00;41.90;;;;;;5072779;28;19952;-44
2024/03/20 03:56:11;;;;;;;;;;;22.00;42.00;;;;;;5080864;28;19919;-43
2024/03/20 03:58:57;;;;;;;;;;;22.10;42.70;;;;;;5074348;28;19913;-42
2024/03/20 04:01:24;;;;;;;;;;;22.10;42.10;;;;;;5060616;28;20007;-43
2024/03/20 04:03:50;;;;;;;;;;;22.10;42.00;;;;;;5066340;28;19916;-42
2024/03/20 04:06:16;;;;;;;;;;;22.10;42.00;;;;;;5061968;28;19924;-46
2024/03/20 04:08:43;;;;;;;;;;;22.00;42.00;;;;;;5057197;28;19913;-42
2024/03/20 04:11:09;;;;;;;;;;;22.00;42.10;;;;;;5062064;28;20051;-41
2024/03/20 04:13:35;;;;;;;;;;;22.10;42.30;;;;;;5060038;28;19912;-42
2024/03/20 04:16:01;;;;;;;;;;;22.10;42.20;;;;;;5062536;28;19948;-41
2024/03/20 04:18:27;;;;;;;;;;;22.10;42.10;;;;;;5061226;28;19915;-45
2024/03/20 04:20:53;;;;;;;;;;;22.00;42.10;;;;;;5061765;28;19913;-41
2024/03/20 04:23:19;;;;;;;;;;;22.00;42.10;;;;;;5043318;28;19913;-42
2024/03/20 04:25:44;;;;;;;;;;;22.00;42.10;;;;;;5061808;28;19992;-42
2024/03/20 04:28:10;;;;;;;;;;;22.00;42.20;;;;;;5062040;28;19909;-44
2024/03/20 04:30:36;;;;;;;;;;;22.00;42.30;;;;;;5061529;28;19920;-41
2024/03/20 04:33:02;;;;;;;;;;;22.00;42.20;;;;;;5057099;28;19912;-40
2024/03/20 04:35:28;;;;;;;;;;;22.00;42.20;;;;;;5061222;28;19920;-41
2024/03/20 04:37:54;;;;;;;;;;;22.00;42.10;;;;;;5067878;28;19908;-41
2024/03/20 04:40:20;;;;;;;;;;;22.00;42.20;;;;;;5076505;28;19913;-40
2024/03/20 04:42:45;;;;;;;;;;;22.00;42.30;;;;;;5076798;28;19909;-40
2024/03/20 04:45:14;;;;;;;;;;;22.00;42.30;;;;;;5075987;28;19963;-43
2024/03/20 04:47:40;;;;;;;;;;;22.00;42.40;;;;;;5066287;28;19917;-41
2024/03/20 04:50:10;;;;;;;;;;;22.00;42.20;;;;;;5065917;28;20033;-40
2024/03/20 04:52:37;;;;;;;;;;;22.00;42.20;;;;;;5073408;28;19916;-40
2024/03/20 04:55:04;;;;;;;;;;;21.90;42.20;;;;;;5073451;28;19908;-45
2024/03/20 04:57:30;;;;;;;;;;;22.00;42.40;;;;;;5075517;28;19916;-43
2024/03/20 04:59:55;;;;;;;;;;;22.00;42.40;;;;;;5078003;28;20024;-41
2024/03/20 05:02:21;;;;;;;;;;;22.00;42.40;;;;;;5065703;28;19908;-44
2024/03/20 05:04:47;;;;;;;;;;;22.00;42.30;;;;;;5071258;28;19912;-42
2024/03/20 05:07:13;;;;;;;;;;;21.90;42.30;;;;;;5071114;28;20396;-46
2024/03/20 05:09:39;;;;;;;;;;;21.90;42.30;;;;;;5083725;28;20027;-41
2024/03/20 05:12:05;;;;;;;;;;;21.90;42.40;;;;;;5083140;28;19951;-42
2024/03/20 05:14:31;;;;;;;;;;;22.00;42.50;;;;;;5072044;28;19913;-41
2024/03/20 05:17:00;;;;;;;;;;;22.00;42.50;;;;;;5070101;28;20006;-41
2024/03/20 05:19:26;;;;;;;;;;;22.00;42.50;;;;;;5073938;28;19984;-42
2024/03/20 05:21:52;;;;;;;;;;;21.90;42.40;;;;;;5069233;28;19908;-41
2024/03/20 05:24:18;;;;;;;;;;;21.90;42.30;;;;;;5070523;28;19920;-42
2024/03/20 05:26:44;;;;;;;;;;;21.90;42.50;;;;;;5071354;28;19920;-42
2024/03/20 05:29:10;;;;;;;;;;;21.90;42.60;;;;;;5071838;28;20349;-43
2024/03/20 05:31:36;;;;;;;;;;;22.00;42.60;;;;;;5074334;28;19923;-41
2024/03/20 05:34:02;;;;;;;;;;;21.90;42.50;;;;;;5080709;28;19981;-43
2024/03/20 05:36:28;;;;;;;;;;;21.90;42.40;;;;;;5080390;28;20040;-41
2024/03/20 05:38:54;;;;;;;;;;;21.90;42.40;;;;;;5077051;28;19909;-43
2024/03/20 05:41:19;;;;;;;;;;;21.80;42.50;;;;;;5073855;28;19983;-43
2024/03/20 05:43:46;;;;;;;;;;;21.90;42.60;;;;;;5067993;28;20013;-40
2024/03/20 05:46:13;;;;;;;;;;;21.90;42.60;;;;;;5075102;28;19909;-41
2024/03/20 05:48:39;;;;;;;;;;;21.90;42.60;;;;;;5074366;28;19918;-42
2024/03/20 05:51:06;;;;;;;;;;;21.90;42.50;;;;;;5079296;28;20331;-45
2024/03/20 05:53:32;;;;;;;;;;;21.90;42.50;;;;;;5073916;28;19923;-42
2024/03/20 05:55:58;;;;;;;;;;;21.80;42.50;;;;;;5073166;28;19913;-42
2024/03/20 05:58:24;;;;;;;;;;;21.90;42.70;;;;;;5078210;28;20608;-43
2024/03/20 06:00:50;;;;;;;;;;;21.90;42.70;;;;;;5071501;28;19984;-47
2024/03/20 06:03:16;;;;;;;;;;;21.90;42.60;;;;;;5078558;28;19965;-43
2024/03/20 06:05:42;;;;;;;;;;;21.90;42.60;;;;;;5071893;28;20686;-44
2024/03/20 06:08:08;;;;;;;;;;;21.80;42.50;;;;;;5076544;28;19913;-42
2024/03/20 06:10:34;;;;;;;;;;;21.80;42.60;;;;;;5070936;28;19938;-43
2024/03/20 06:13:00;;;;;;;;;;;21.90;42.80;;;;;;5077451;28;19912;-43
2024/03/20 06:15:26;;;;;;;;;;;21.90;42.80;;;;;;5080387;28;20015;-44
2024/03/20 06:17:52;;;;;;;;;;;21.90;42.70;;;;;;5081295;28;19920;-42
2024/03/20 06:20:19;;;;;;;;;;;21.90;42.70;;;;;;5080206;28;19908;-43
2024/03/20 06:22:45;;;;;;;;;;;21.80;42.60;;;;;;5070320;28;19957;-40
2024/03/20 06:25:11;;;;;;;;;;;21.80;42.60;;;;;;5070345;28;19999;-43
2024/03/20 06:27:37;;;;;;;;;;;21.80;42.70;;;;;;5076077;28;19940;-41
2024/03/20 06:30:12;;;;;;;;;;;21.80;42.80;;;;;;5072797;28;19919;-41
2024/03/20 06:32:38;;;;;;;;;;;21.90;42.80;;;;;;5069847;28;19924;-42
2024/03/20 06:35:05;;;;;;;;;;;21.90;42.80;;;;;;5069505;28;19916;-45
2024/03/20 06:37:31;;;;;;;;;;;21.80;42.70;;;;;;5070426;28;19916;-48
2024/03/20 06:39:56;;;;;;;;;;;21.80;42.70;;;;;;5069426;28;19909;-41
2024/03/20 06:42:22;;;;;;;;;;;21.80;42.60;;;;;;5070617;28;19987;-43
2024/03/20 06:44:49;;;;;;;;;;;21.80;42.80;;;;;;5073070;28;19916;-47
2024/03/20 06:47:15;;;;;;;;;;;21.90;42.90;;;;;;5071525;28;19920;-42
2024/03/20 06:49:42;;;;;;;;;;;21.90;42.80;;;;;;5099074;28;19916;-40
2024/03/20 06:52:08;;;;;;;;;;;21.80;42.70;;;;;;5075247;28;19916;-40
2024/03/20 06:54:35;;;;;;;;;;;21.80;42.60;;;;;;5067529;28;20051;-43
2024/03/20 06:57:04;;;;;;;;;;;21.70;42.70;;;;;;5077545;28;19912;-41
2024/03/20 06:59:30;;;;;;;;;;;21.80;42.80;;;;;;5071496;28;19916;-44
2024/03/20 07:01:57;;;;;;;;;;;21.80;42.90;;;;;;5074770;28;19915;-42
2024/03/20 07:04:23;;;;;;;;;;;21.80;42.80;;;;;;5071205;28;19912;-48
2024/03/20 07:06:49;;;;;;;;;;;21.80;42.80;;;;;;5068408;28;19951;-44
2024/03/20 07:09:15;;;;;;;;;;;21.80;42.70;;;;;;5069221;28;19977;-41
2024/03/20 07:11:41;;;;;;;;;;;21.70;42.60;;;;;;5076364;28;19926;-40
2024/03/20 07:14:07;;;;;;;;;;;21.70;42.90;;;;;;5068626;28;19935;-45
2024/03/20 07:16:33;;;;;;;;;;;21.80;42.90;;;;;;5070385;28;19942;-41
2024/03/20 07:18:58;;;;;;;;;;;21.80;42.90;;;;;;5070314;28;19912;-44
2024/03/20 07:21:25;;;;;;;;;;;21.80;42.80;;;;;;5075490;28;19912;-43
2024/03/20 07:23:51;;;;;;;;;;;21.80;42.80;;;;;;5075998;28;19954;-41
2024/03/20 07:26:17;;;;;;;;;;;21.80;42.80;;;;;;5070496;28;19920;-41
2024/03/20 07:28:43;;;;;;;;;;;21.70;42.90;;;;;;5070228;28;20647;-41
2024/03/20 07:31:09;;;;;;;;;;;21.80;42.90;;;;;;5072015;28;19977;-42
2024/03/20 07:33:36;;;;;;;;;;;21.80;42.90;;;;;;5071457;28;19936;-44
2024/03/20 07:36:01;;;;;;;;;;;21.80;42.90;;;;;;5073002;28;19919;-44
2024/03/20 07:38:27;;;;;;;;;;;21.80;42.80;;;;;;5070269;28;20547;-40
2024/03/20 07:40:54;;;;;;;;;;;21.70;42.80;;;;;;5073840;28;19919;-41
2024/03/20 07:43:20;;;;;;;;;;;21.70;42.90;;;;;;5068585;28;19917;-43
2024/03/20 07:45:46;;;;;;;;;;;21.70;42.90;;;;;;5072133;28;19909;-43
2024/03/20 07:48:12;;;;;;;;;;;21.80;42.90;;;;;;5070284;28;20010;-40
2024/03/20 07:50:39;;;;;;;;;;;21.80;42.90;;;;;;5076547;28;19920;-47
2024/03/20 07:53:05;;;;;;;;;;;21.80;42.80;;;;;;5072282;28;19908;-47
2024/03/20 07:55:31;;;;;;;;;;;21.70;42.80;;;;;;5069660;28;19947;-46
2024/03/20 07:57:57;;;;;;;;;;;21.70;42.80;;;;;;5076648;28;19908;-41
2024/03/20 08:00:29;;;;;;;;;;;21.70;42.90;;;;;;5080157;28;19935;-45
2024/03/20 08:02:58;;;;;;;;;;;21.80;43.50;;;;;;5075767;28;19918;-45
2024/03/20 08:05:24;;;;;;;;;;;21.80;42.90;;;;;;5072668;28;19915;-44
2024/03/20 08:07:50;;;;;;;;;;;21.80;42.90;;;;;;5079401;28;19917;-44
2024/03/20 08:10:16;;;;;;;;;;;21.70;42.80;;;;;;5076174;28;19912;-44
2024/03/20 08:12:41;;;;;;;;;;;21.70;42.80;;;;;;5074064;28;19916;-45
2024/03/20 08:15:07;;;;;;;;;;;21.70;43.00;;;;;;5077247;28;19912;-45
2024/03/20 08:17:34;;;;;;;;;;;21.70;43.00;;;;;;5077408;28;19940;-47
2024/03/20 08:20:02;;;;;;;;;;;21.80;43.00;;;;;;5076421;28;19904;-45
2024/03/20 08:22:29;;;;;;;;;;;21.80;43.00;;;;;;5075482;28;20651;-44
2024/03/20 08:24:55;;;;;;;;;;;21.70;42.90;;;;;;5073924;28;19919;-48
2024/03/20 08:27:25;;;;;;;;;;;21.70;43.50;;;;;;5073555;28;19905;-43
2024/03/20 08:29:51;;;;;;;;;;;21.70;43.00;;;;;;5065692;28;19912;-46
2024/03/20 08:32:17;;;;;;;;;;;21.70;43.00;;;;;;5078183;28;19955;-42
2024/03/20 08:34:43;;;;;;;;;;;21.80;43.10;;;;;;5065584;28;19968;-47
2024/03/20 08:37:09;;;;;;;;;;;21.80;43.10;;;;;;5065622;28;19920;-43
2024/03/20 08:39:35;;;;;;;;;;;21.70;43.00;;;;;;5073357;28;19912;-43
2024/03/20 08:42:01;;;;;;;;;;;21.70;43.00;;;;;;5072578;28;19978;-43
2024/03/20 08:44:28;;;;;;;;;;;21.70;42.90;;;;;;5067361;28;20018;-44
2024/03/20 08:46:54;;;;;;;;;;;21.70;43.10;;;;;;5085759;28;19908;-45
2024/03/20 08:49:20;;;;;;;;;;;21.70;43.10;;;;;;5066153;28;19916;-40
2024/03/20 08:51:47;;;;;;;;;;;21.70;43.10;;;;;;5078265;28;19924;-44
2024/03/20 08:54:13;;;;;;;;;;;21.70;43.00;;;;;;5079745;28;20353;-41
2024/03/20 08:56:39;;;;;;;;;;;21.70;43.00;;;;;;5072029;28;20705;-43
2024/03/20 08:59:05;;;;;;;;;;;21.70;43.00;;;;;;5063641;28;19920;-44
2024/03/20 09:01:31;;;;;;;;;;;21.70;43.10;;;;;;5065268;28;19916;-43
2024/03/20 09:03:57;;;;;;;;;;;21.70;43.10;;;;;;5092107;28;19919;-41
2024/03/20 09:06:23;;;;;;;;;;;21.80;43.20;;;;;;5076496;28;19912;-41
2024/03/20 09:08:50;;;;;;;;;;;21.70;43.10;;;;;;5071909;28;19923;-45
2024/03/20 09:11:15;;;;;;;;;;;21.70;43.00;;;;;;5073119;28;19917;-42
2024/03/20 09:13:41;;;;;;;;;;;21.60;42.90;;;;;;5072285;28;20251;-43
2024/03/20 09:16:08;;;;;;;;;;;21.70;43.20;;;;;;5080760;28;19919;-43
2024/03/20 09:18:34;;;;;;;;;;;21.70;43.20;;;;;;5076153;28;19922;-42
2024/03/20 09:20:59;;;;;;;;;;;21.80;43.20;;;;;;5069287;28;20412;-41
2024/03/20 09:23:26;;;;;;;;;;;21.70;43.10;;;;;;5064355;28;19916;-42
2024/03/20 09:25:52;;;;;;;;;;;21.70;43.10;;;;;;5064318;28;19913;-46
2024/03/20 09:28:18;;;;;;;;;;;21.70;43.00;;;;;;5072529;28;20337;-42
2024/03/20 09:30:44;;;;;;;;;;;21.70;43.10;;;;;;5079679;28;19916;-44
2024/03/20 09:33:10;;;;;;;;;;;21.70;43.20;;;;;;5079317;28;19916;-40
2024/03/20 09:35:36;;;;;;;;;;;21.70;43.20;;;;;;5079882;28;19936;-45
2024/03/20 09:38:02;;;;;;;;;;;21.70;43.20;;;;;;5072003;28;20017;-44
2024/03/20 09:40:28;;;;;;;;;;;21.70;43.10;;;;;;5075881;28;20470;-47
2024/03/20 09:42:54;;;;;;;;;;;21.70;43.10;;;;;;5078322;28;19947;-42
2024/03/20 09:45:20;;;;;;;;;;;21.60;43.20;;;;;;5072093;28;20011;-42
2024/03/20 09:47:50;;;;;;;;;;;21.70;43.20;;;;;;5071975;28;19912;-44
2024/03/20 09:50:16;;;;;;;;;;;21.70;43.20;;;;;;5064857;28;19931;-46
2024/03/20 09:52:41;;;;;;;;;;;21.80;43.30;;;;;;5071779;28;19916;-46
2024/03/20 09:55:12;;;;;;;;;;;21.70;43.10;;;;;;5076718;28;19912;-42
2024/03/20 09:57:40;;;;;;;;;;;21.70;43.10;;;;;;5070633;28;19954;-42
2024/03/20 10:00:08;;;;;;;;;;;21.60;43.20;;;;;;5069887;28;19966;-43
2024/03/20 10:02:34;;;;;;;;;;;21.70;43.30;;;;;;5065935;28;19912;-44
2024/03/20 10:05:00;;;;;;;;;;;21.80;43.30;;;;;;5074184;28;19944;-45
2024/03/20 10:07:26;;;;;;;;;;;21.70;43.20;;;;;;5065661;28;19920;-44
2024/03/20 10:09:52;;;;;;;;;;;21.70;43.20;;;;;;5071325;28;20421;-44
2024/03/20 10:12:19;;;;;;;;;;;21.70;43.10;;;;;;5070702;28;20003;-41
2024/03/20 10:14:47;;;;;;;;;;;21.70;43.20;;;;;;5067628;28;19931;-44
2024/03/20 10:17:14;;;;;;;;;;;21.70;43.30;;;;;;5073375;28;20023;-43
2024/03/20 10:19:43;;;;;;;;;;;21.70;43.30;;;;;;5064579;28;20051;-45
2024/03/20 10:22:09;;;;;;;;;;;21.70;43.30;;;;;;5061969;28;20449;-42
2024/03/20 10:24:35;;;;;;;;;;;21.70;43.20;;;;;;5081193;28;19919;-41
2024/03/20 10:27:02;;;;;;;;;;;21.70;43.20;;;;;;5074620;28;19920;-49
2024/03/20 10:29:29;;;;;;;;;;;21.70;43.20;;;;;;5064781;28;19909;-44
2024/03/20 10:31:58;;;;;;;;;;;21.70;43.30;;;;;;5067083;28;19942;-44
2024/03/20 10:34:24;;;;;;;;;;;21.70;43.30;;;;;;5072758;28;19908;-41
2024/03/20 10:36:50;;;;;;;;;;;21.70;43.30;;;;;;5070692;28;19913;-45
2024/03/20 10:39:23;;;;;;;;;;;21.70;43.20;;;;;;5063905;28;19966;-47
2024/03/20 10:41:49;;;;;;;;;;;21.70;43.20;;;;;;5077468;28;19916;-44
2024/03/20 10:44:16;;;;;;;;;;;21.60;43.70;;;;;;5071166;28;19920;-45
2024/03/20 10:46:45;;;;;;;;;;;21.70;43.40;;;;;;5078458;28;19988;-44
2024/03/20 10:49:21;;;;;;;;;;;21.70;43.30;;;;;;5074638;28;19913;-43
2024/03/20 10:51:48;;;;;;;;;;;21.80;43.40;;;;;;5074320;28;19927;-40
2024/03/20 10:54:14;;;;;;;;;;;21.70;43.30;;;;;;5064911;28;19991;-45
2024/03/20 10:56:46;;;;;;;;;;;21.70;43.20;;;;;;5076417;28;20023;-43
2024/03/20 10:59:16;;;;;;;;;;;21.60;43.30;;;;;;5070065;28;20073;-43
2024/03/20 11:02:01;;;;;;;;;;;21.60;43.40;;;;;;5077659;28;19908;-42
2024/03/20 11:04:32;;;;;;;;;;;21.70;43.40;;;;;;5070982;28;20021;-46
2024/03/20 11:06:58;;;;;;;;;;;21.70;43.40;;;;;;5081452;28;19912;-43
2024/03/20 11:09:26;;;;;;;;;;;21.70;43.30;;;;;;5079684;28;19919;-42
2024/03/20 11:11:52;;;;;;;;;;;21.70;43.30;;;;;;5080535;28;19924;-43
2024/03/20 11:14:25;;;;;;;;;;;21.60;43.30;;;;;;5079946;28;19919;-42
2024/03/20 11:16:54;;;;;;;;;;;21.60;43.40;;;;;;5068043;28;19912;-40
2024/03/20 11:19:20;;;;;;;;;;;21.70;43.50;;;;;;5079390;28;20581;-47
2024/03/20 11:21:51;;;;;;;;;;;21.70;43.40;;;;;;5080459;28;19908;-45
2024/03/20 11:24:17;;;;;;;;;;;21.70;43.40;;;;;;5078706;28;19919;-47
2024/03/20 11:26:42;;;;;;;;;;;21.70;43.30;;;;;;5099423;28;20003;-43
2024/03/20 11:29:10;;;;;;;;;;;21.70;43.40;;;;;;5077751;28;19917;-45
2024/03/20 11:31:37;;;;;;;;;;;21.60;43.40;;;;;;5074491;28;19975;-46
2024/03/20 11:34:06;;;;;;;;;;;21.70;43.50;;;;;;5077348;28;19909;-43
2024/03/20 11:36:32;;;;;;;;;;;21.70;43.40;;;;;;5083488;28;19938;-43
2024/03/20 11:38:58;;;;;;;;;;;21.70;43.40;;;;;;5084067;28;19912;-43
2024/03/20 11:41:24;;;;;;;;;;;21.70;43.40;;;;;;5082421;28;19916;-44
2024/03/20 11:43:50;;;;;;;;;;;21.60;43.30;;;;;;5071237;28;19924;-43
2024/03/20 11:46:16;;;;;;;;;;;21.60;43.40;;;;;;5082224;28;19985;-41
2024/03/20 11:48:45;;;;;;;;;;;21.70;43.50;;;;;;5087459;28;19911;-44
2024/03/20 11:51:11;;;;;;;;;;;21.70;43.50;;;;;;5079942;28;20331;-45
2024/03/20 11:53:37;;;;;;;;;;;21.70;43.40;;;;;;5083512;28;19964;-42
2024/03/20 11:56:04;;;;;;;;;;;21.70;43.40;;;;;;5072055;28;19908;-45
2024/03/20 11:58:29;;;;;;;;;;;21.60;43.90;;;;;;5068982;28;19923;-41
2024/03/20 12:01:02;;;;;;;;;;;21.60;43.40;;;;;;5077102;28;19912;-47
2024/03/20 12:03:28;;;;;;;;;;;21.60;43.50;;;;;;5078410;28;20419;-42
2024/03/20 12:06:07;;;;;;;;;;;21.70;43.50;;;;;;5083139;28;19908;-44
2024/03/20 12:08:33;;;;;;;;;;;21.70;43.50;;;;;;5083073;28;19916;-43
2024/03/20 12:10:58;;;;;;;;;;;21.70;43.40;;;;;;5080074;28;19923;-43
2024/03/20 12:13:24;;;;;;;;;;;21.60;43.40;;;;;;5075459;28;19909;-45
2024/03/20 12:15:50;;;;;;;;;;;21.60;43.40;;;;;;5110357;28;19917;-45
2024/03/20 12:18:16;;;;;;;;;;;21.60;43.50;;;;;;5083588;28;19919;-43
2024/03/20 12:20:42;;;;;;;;;;;21.70;43.50;;;;;;5083095;28;20448;-41
2024/03/20 12:23:09;;;;;;;;;;;21.70;43.50;;;;;;5077644;28;19935;-42
2024/03/20 12:25:36;;;;;;;;;;;21.70;43.50;;;;;;5080492;28;19913;-44
2024/03/20 12:28:02;;;;;;;;;;;21.70;43.40;;;;;;5083330;28;19912;-42
2024/03/20 12:30:29;;;;;;;;;;;21.60;43.40;;;;;;5082243;28;19912;-42
2024/03/20 12:32:55;;;;;;;;;;;21.60;43.50;;;;;;5073559;28;19916;-42
2024/03/20 12:35:21;;;;;;;;;;;21.70;43.50;;;;;;5072414;28;19908;-41
2024/03/20 12:37:47;;;;;;;;;;;21.70;43.50;;;;;;5073287;28;19961;-44
2024/03/20 12:40:13;;;;;;;;;;;21.70;43.50;;;;;;5086649;28;19908;-39
2024/03/20 12:42:39;;;;;;;;;;;21.70;43.40;;;;;;5076194;28;19913;-41
2024/03/20 12:45:06;;;;;;;;;;;21.60;43.40;;;;;;5071366;28;19980;-44
2024/03/20 12:47:32;;;;;;;;;;;21.60;43.50;;;;;;5073552;28;19916;-44
2024/03/20 12:49:58;;;;;;;;;;;21.60;43.60;;;;;;5071148;28;19913;-41
2024/03/20 12:52:25;;;;;;;;;;;21.70;43.60;;;;;;5081597;28;19913;-42
2024/03/20 12:54:51;;;;;;;;;;;21.70;43.50;;;;;;5073971;28;19915;-42
2024/03/20 12:57:18;;;;;;;;;;;21.70;43.50;;;;;;5075326;28;19913;-44
2024/03/20 12:59:44;;;;;;;;;;;21.60;43.40;;;;;;5075964;28;20071;-43
2024/03/20 13:02:13;;;;;;;;;;;21.60;43.50;;;;;;5079035;28;19920;-42
2024/03/20 13:04:40;;;;;;;;;;;21.70;43.70;;;;;;5075651;28;20085;-44
2024/03/20 13:07:15;;;;;;;;;;;21.70;43.60;;;;;;5083032;28;19915;-42
2024/03/20 13:09:45;;;;;;;;;;;21.70;43.60;;;;;;5072774;28;20007;-43
2024/03/20 13:12:14;;;;;;;;;;;21.70;43.50;;;;;;5072176;28;19917;-46
2024/03/20 13:14:40;;;;;;;;;;;21.70;43.50;;;;;;5079710;28;19916;-45
2024/03/20 13:17:12;;;;;;;;;;;21.70;43.50;;;;;;5065139;28;19908;-43
2024/03/20 13:19:38;;;;;;;;;;;21.70;43.50;;;;;;5071298;28;19912;-43
2024/03/20 13:22:12;;;;;;;;;;;21.80;43.60;;;;;;5066644;28;19915;-42
2024/03/20 13:24:38;;;;;;;;;;;21.80;43.60;;;;;;5073488;28;19962;-41
2024/03/20 13:27:07;;;;;;;;;;;21.80;43.60;;;;;;5068276;28;19912;-41
2024/03/20 13:29:33;;;;;;;;;;;21.80;43.50;;;;;;5066344;28;20015;-43
2024/03/20 13:32:03;;;;;;;;;;;21.70;43.50;;;;;;5068900;28;19920;-46
2024/03/20 13:34:30;;;;;;;;;;;21.80;43.60;;;;;;5067653;28;19913;-40
2024/03/20 13:36:56;;;;;;;;;;;21.80;43.60;;;;;;5075562;28;19912;-42
2024/03/20 13:39:44;;;;;;;;;;;21.80;43.60;;;;;;5075284;28;19948;-44
2024/03/20 13:42:47;;;;;;;;;;;21.80;43.50;;;;;;5064813;28;19916;-42
2024/03/20 13:45:14;;;;;;;;;;;21.80;43.50;;;;;;5078799;28;19916;-42
2024/03/20 13:47:40;;;;;;;;;;;21.80;43.50;;;;;;5096283;28;20001;-43
2024/03/20 13:50:07;;;;;;;;;;;21.80;43.40;;;;;;5084393;28;19908;-41
2024/03/20 13:52:32;;;;;;;;;;;21.90;43.40;;;;;;5081064;28;19924;-46
2024/03/20 13:54:59;;;;;;;;;;;21.90;43.40;;;;;;5075265;28;19912;-45
2024/03/20 13:57:27;;;;;;;;;;;21.90;43.30;;;;;;5080189;28;19913;-42
2024/03/20 13:59:52;;;;;;;;;;;21.90;43.30;;;;;;5076158;28;19919;-41
2024/03/20 14:02:21;;;;;;;;;;;21.90;43.30;;;;;;5074342;28;19908;-44
2024/03/20 14:04:47;;;;;;;;;;;21.90;43.20;;;;;;5077402;28;19912;-45
2024/03/20 14:07:13;;;;;;;;;;;22.00;43.20;;;;;;5074799;28;19912;-42
2024/03/20 14:09:39;;;;;;;;;;;22.00;43.20;;;;;;5067815;28;19944;-43
2024/03/20 14:12:05;;;;;;;;;;;22.00;43.20;;;;;;5076341;28;19921;-44
2024/03/20 14:14:31;;;;;;;;;;;22.00;43.10;;;;;;5065818;28;19939;-45
2024/03/20 14:16:57;;;;;;;;;;;22.00;43.10;;;;;;5075512;28;19943;-43